メインページ
METAR-TAF:

METAR-TAF

空港 :

アフヴァーズ空港

アフヴァーズ, イラン

緯度: 31-20N, 経度: 048-40E, 海抜: 20m

現時点の気象観測

当レポートは1時間19分前の01:00(UTC)に作成
の風 4kt
気温 33°C
湿度 24%
気圧 992 hPa
視程: 7000m

METAR: OIAW 070100Z 18004KT 7000 NSC 33/10 Q0992

時間: 06:49 (02:19 UTC)

予報

当レポートは3時間19分前の23:00(UTC)に作成
予報は07日の 00時(UTC)から 08日の 06時(UTC)まで有効
西の風 8kt
視程: 7000m

TAF: OIAW 062300Z 0700/0806 27008KT 7000 NSC

4,000以上の空港の気象観測と天気予報(METAR報とTAF報)

利用可能な観測所は地図上に黄色い丸と赤い丸で示す。

丸の上にカーソルを重ねると観測所名を参照できる。

次にクリックすると気象観測と天気予報を参照できる。

マップの切り替え:黒色「×」印の緑ボタンをクリックして拡大、「-」印の緑ボタンをクリックして縮小、緑色の三角印をクリックして隣りの地図に切り替え


METAR-TAF: